ENNM/OSY METAR and TAF weather

Enter ICAO airport designator
Station Type Date Time Source
ENNM METAR 2019/08/22 07:50 UTC NOAA

ENNM 220750Z 06012KT CAVOK 12/08 Q1018


Station Type Date Time Source
ENNM Decoded METAR 2019/08/22 07:50 UTC NOAA

Station name not available
Aug 22, 2019 - 03:50 AM EDT / 2019.08.22 0750 UTC
Wind: from the ENE (060 degrees) at 14 MPH (12 KT):0
Visibility: greater than 7 mile(s):0
Temperature: 53 F (12 C)
Dew Point: 46 F (8 C)
Relative Humidity: 76%
Pressure (altimeter): 30.06 in. Hg (1018 hPa)
ob: ENNM 220750Z 06012KT CAVOK 12/08 Q1018
cycle: 8

Station Type Date Time Source
ENNM TAF UTC NOAA

Error!

Example: see airport list